createdAt,value
2019-01-05T00:54:26.693Z,5.10
2019-01-05T01:00:13.249Z,5.10
2019-01-05T01:03:01.735Z,5.10
2019-01-05T01:06:08.711Z,5.10
2019-01-05T01:09:04.201Z,5.10
2019-01-05T01:12:03.184Z,5.10
2019-01-05T01:15:19.029Z,5.10
2019-01-05T01:18:39.588Z,5.20
2019-01-05T01:22:12.107Z,5.20
2019-01-05T01:28:24.015Z,5.30
2019-01-05T01:35:10.872Z,5.20
2019-01-05T01:38:37.293Z,5.10
2019-01-05T01:41:36.401Z,5.20
2019-01-05T01:44:27.713Z,5.20
2019-01-05T01:47:41.947Z,5.20
2019-01-05T01:51:11.713Z,5.20
2019-01-05T01:54:24.042Z,5.20
2019-01-05T01:57:18.169Z,5.20
2019-01-05T02:00:56.676Z,5.20
2019-01-05T02:03:52.165Z,5.20
2019-01-05T02:09:43.440Z,5.30
2019-01-05T02:12:46.595Z,5.20
2019-01-05T02:15:52.575Z,5.20
2019-01-05T02:19:15.925Z,5.20
2019-01-05T02:27:13.146Z,5.20
2019-01-05T02:30:36.016Z,5.20
2019-01-05T02:34:21.599Z,5.00
2019-01-05T02:37:57.607Z,5.00
2019-01-05T02:41:30.827Z,5.00
2019-01-05T02:45:16.904Z,5.00
2019-01-05T02:49:15.902Z,5.00
2019-01-05T02:52:58.167Z,5.00
2019-01-05T03:04:44.070Z,5.10
2019-01-05T03:08:25.104Z,5.10
2019-01-05T03:16:09.760Z,5.10
2019-01-05T03:19:50.257Z,5.00
2019-01-05T03:23:39.647Z,5.10
2019-01-05T03:27:21.851Z,5.10
2019-01-05T03:30:50.242Z,5.10
2019-01-05T03:34:40.274Z,5.10
2019-01-05T03:38:32.268Z,5.10
2019-01-05T03:42:02.601Z,5.10
2019-01-05T03:45:34.329Z,5.10
2019-01-05T03:49:20.435Z,5.10
2019-01-05T03:52:58.833Z,5.20
2019-01-05T03:56:10.321Z,5.10
2019-01-05T04:00:09.473Z,5.10
2019-01-05T04:03:52.752Z,5.10
2019-01-05T04:07:27.897Z,5.10
2019-01-05T04:11:00.552Z,5.10
2019-01-05T04:14:26.153Z,5.10
2019-01-05T04:18:10.072Z,5.10
2019-01-05T04:21:28.636Z,5.10
2019-01-05T04:25:02.894Z,5.20
2019-01-05T04:28:47.337Z,5.10
2019-01-05T04:32:40.687Z,5.20
2019-01-05T04:36:22.578Z,5.20
2019-01-05T04:39:43.801Z,5.20
2019-01-05T04:43:44.646Z,5.20
2019-01-05T04:49:57.189Z,5.20
2019-01-05T04:53:35.575Z,5.20
2019-01-05T04:57:24.237Z,5.20
2019-01-05T05:01:02.242Z,5.20
2019-01-05T05:04:35.575Z,5.20
2019-01-05T05:07:57.143Z,5.20
2019-01-05T05:11:23.338Z,5.30
2019-01-05T05:15:00.554Z,5.30
2019-01-05T05:18:22.322Z,5.30
2019-01-05T05:22:11.076Z,5.30
2019-01-05T05:25:40.321Z,5.40
2019-01-05T05:29:05.070Z,5.50
2019-01-05T05:32:42.351Z,5.40
2019-01-05T05:36:09.295Z,5.40
2019-01-05T05:40:06.971Z,5.50
2019-01-05T05:43:38.242Z,5.50
2019-01-05T05:47:10.705Z,5.50
2019-01-05T05:50:42.157Z,5.50
2019-01-05T05:54:27.409Z,5.50
2019-01-05T05:58:01.984Z,5.60
2019-01-05T06:01:44.251Z,5.60
2019-01-05T06:05:13.965Z,5.70
2019-01-05T06:09:04.856Z,5.70
2019-01-05T06:12:51.010Z,5.70
2019-01-05T06:16:30.802Z,5.80
2019-01-05T06:20:17.107Z,5.80
2019-01-05T06:23:51.302Z,5.80
2019-01-05T06:27:45.393Z,5.80
2019-01-05T06:31:21.969Z,5.90
2019-01-05T06:34:44.760Z,5.90
2019-01-05T06:38:23.577Z,5.90
2019-01-05T06:42:21.625Z,6.00
2019-01-05T06:46:07.379Z,6.00
2019-01-05T06:49:54.574Z,6.00
2019-01-05T06:53:20.682Z,6.00
2019-01-05T06:56:29.576Z,6.00
2019-01-05T07:00:16.760Z,6.10
2019-01-05T07:03:45.710Z,6.10
2019-01-05T07:07:19.411Z,6.20
2019-01-05T07:10:55.322Z,6.20
2019-01-05T07:14:39.068Z,6.20
2019-01-05T07:18:27.627Z,6.20
2019-01-05T07:21:52.498Z,6.30
2019-01-05T07:25:08.817Z,6.30
2019-01-05T07:28:31.893Z,6.40
2019-01-05T07:31:46.377Z,6.40
2019-01-05T07:35:09.408Z,6.40
2019-01-05T07:38:40.337Z,6.40
2019-01-05T07:42:19.925Z,6.40
2019-01-05T07:46:07.246Z,6.40
2019-01-05T07:49:29.644Z,6.40
2019-01-05T07:52:58.135Z,6.50
2019-01-05T07:56:46.803Z,6.50
2019-01-05T08:00:09.280Z,6.50
2019-01-05T08:03:40.032Z,6.50
2019-01-05T08:07:03.278Z,6.50
2019-01-05T08:10:34.193Z,6.50
2019-01-05T08:14:24.761Z,6.50
2019-01-05T08:17:47.426Z,6.50
2019-01-05T08:21:43.891Z,6.50
2019-01-05T08:25:41.448Z,6.50
2019-01-05T08:29:10.968Z,6.50
2019-01-05T08:33:01.639Z,6.50
2019-01-05T08:36:31.387Z,6.50
2019-01-05T08:40:05.249Z,6.50
2019-01-05T08:43:36.856Z,6.50
2019-01-05T08:47:12.811Z,6.50
2019-01-05T08:50:47.601Z,6.50
2019-01-05T08:54:08.961Z,6.50
2019-01-05T08:57:47.551Z,6.50
2019-01-05T09:01:09.672Z,6.50
2019-01-05T09:04:35.312Z,6.50
2019-01-05T09:08:13.845Z,6.50
2019-01-05T09:11:38.670Z,6.50
2019-01-05T09:15:15.064Z,6.50
2019-01-05T09:18:38.337Z,6.60
2019-01-05T09:22:26.295Z,6.60
2019-01-05T09:26:10.616Z,6.60
2019-01-05T09:29:44.580Z,6.60
2019-01-05T09:33:24.782Z,6.60
2019-01-05T09:37:24.356Z,6.60
2019-01-05T09:41:07.312Z,6.60
2019-01-05T09:44:35.097Z,6.60
2019-01-05T09:48:03.639Z,6.60
2019-01-05T09:51:23.245Z,6.60
2019-01-05T09:55:22.566Z,6.60
2019-01-05T09:58:46.936Z,6.60
2019-01-05T10:02:17.715Z,6.60
2019-01-05T10:05:43.616Z,6.70
2019-01-05T10:09:10.626Z,6.70
2019-01-05T10:12:46.924Z,6.70
2019-01-05T10:16:35.938Z,6.70
2019-01-05T10:20:13.227Z,6.70
2019-01-05T10:23:27.307Z,6.70
2019-01-05T10:28:56.397Z,6.70
2019-01-05T10:35:07.757Z,6.70
2019-01-05T10:38:07.674Z,6.70
2019-01-05T10:41:09.829Z,6.70
2019-01-05T10:44:10.322Z,6.80
2019-01-05T10:47:10.746Z,6.80
2019-01-05T10:50:11.472Z,6.80
2019-01-05T10:53:38.184Z,6.80
2019-01-05T10:57:04.864Z,6.80
2019-01-05T11:00:05.474Z,6.80
2019-01-05T11:09:39.140Z,6.90
2019-01-05T11:12:41.689Z,6.80
2019-01-05T11:15:47.094Z,6.80
2019-01-05T11:18:48.162Z,6.90
2019-01-05T11:21:51.622Z,6.90
2019-01-05T11:28:30.795Z,6.90
2019-01-05T11:31:58.792Z,7.00
2019-01-05T11:34:59.294Z,7.00
2019-01-05T11:41:09.268Z,7.20
2019-01-05T11:44:10.608Z,7.40
2019-01-05T11:47:38.339Z,7.20
2019-01-05T11:51:05.002Z,7.10
2019-01-05T11:57:24.704Z,7.10
2019-01-05T12:03:10.937Z,7.00
2019-01-05T12:06:14.147Z,7.00
2019-01-05T12:09:17.408Z,7.00
2019-01-05T12:12:23.695Z,7.00
2019-01-05T12:18:12.241Z,7.00
2019-01-05T12:21:10.020Z,6.90
2019-01-05T12:24:15.551Z,6.90
2019-01-05T12:27:43.069Z,6.90
2019-01-05T12:30:43.434Z,7.00
2019-01-05T12:33:43.906Z,7.10
2019-01-05T12:36:44.391Z,7.00
2019-01-05T12:39:43.922Z,7.00
2019-01-05T12:42:25.680Z,7.00
2019-01-05T12:45:53.781Z,6.90
2019-01-05T12:48:54.293Z,6.90
2019-01-05T12:51:54.442Z,6.90
2019-01-05T12:57:59.098Z,7.00
2019-01-05T13:03:42.055Z,7.00
2019-01-05T13:06:39.021Z,7.00
2019-01-05T13:09:42.080Z,7.00
2019-01-05T13:12:42.981Z,7.00
2019-01-05T13:16:09.892Z,6.90
2019-01-05T13:19:08.053Z,6.90
2019-01-05T13:25:22.950Z,6.90
2019-01-05T13:28:41.044Z,6.90
2019-01-05T13:31:37.772Z,6.80
2019-01-05T13:34:44.197Z,6.80
2019-01-05T13:37:44.940Z,6.80
2019-01-05T13:41:16.106Z,6.80
2019-01-05T13:44:43.066Z,6.80
2019-01-05T13:48:10.270Z,6.90
2019-01-05T13:51:13.541Z,6.80
2019-01-05T13:57:35.209Z,6.80
2019-01-05T14:00:20.108Z,6.80
2019-01-05T14:03:09.199Z,6.80
2019-01-05T14:06:17.357Z,6.80
2019-01-05T14:09:06.289Z,6.80
2019-01-05T14:12:16.515Z,6.90
2019-01-05T14:18:35.093Z,6.90
2019-01-05T14:21:35.808Z,7.00
2019-01-05T14:24:36.640Z,7.00
2019-01-05T14:30:16.443Z,6.90
2019-01-05T14:33:09.229Z,6.90
2019-01-05T14:36:14.183Z,6.90
2019-01-05T14:39:14.763Z,6.90
2019-01-05T14:42:15.191Z,7.00
2019-01-05T14:45:17.072Z,6.90
2019-01-05T14:48:21.730Z,6.90
2019-01-05T14:54:34.834Z,6.80
2019-01-05T14:57:42.805Z,6.80
2019-01-05T15:00:44.386Z,6.90
2019-01-05T15:03:33.163Z,6.90
2019-01-05T15:06:41.340Z,6.80
2019-01-05T15:09:50.323Z,6.80
2019-01-05T15:12:39.148Z,6.80
2019-01-05T15:16:07.614Z,6.80
2019-01-05T15:19:07.851Z,6.80
2019-01-05T15:28:33.935Z,6.90
2019-01-05T15:31:35.793Z,6.90
2019-01-05T15:34:28.371Z,6.90
2019-01-05T15:37:36.418Z,6.90
2019-01-05T15:43:12.284Z,7.00
2019-01-05T15:49:19.778Z,7.00
2019-01-05T15:52:09.198Z,7.00
2019-01-05T15:55:20.160Z,7.00
2019-01-05T16:01:26.860Z,7.00
2019-01-05T16:04:28.335Z,7.00
2019-01-05T16:10:55.315Z,6.80
2019-01-05T16:14:08.979Z,6.80
2019-01-05T16:24:05.559Z,6.80
2019-01-05T16:27:08.501Z,6.80
2019-01-05T16:30:11.893Z,6.80
2019-01-05T16:36:56.541Z,6.90
2019-01-05T16:39:58.125Z,6.90
2019-01-05T16:42:58.415Z,6.90
2019-01-05T16:52:35.390Z,6.80
2019-01-05T16:58:46.522Z,6.90
2019-01-05T17:08:53.605Z,6.70
2019-01-05T17:12:05.681Z,6.80
2019-01-05T17:21:40.215Z,6.70
2019-01-05T17:24:29.416Z,6.70
2019-01-05T17:27:37.607Z,6.70
2019-01-05T17:36:54.501Z,6.70
2019-01-05T17:43:17.082Z,6.70
2019-01-05T17:46:10.680Z,6.80
2019-01-05T17:51:55.643Z,6.90
2019-01-05T17:55:18.817Z,6.80
2019-01-05T17:57:56.085Z,6.80
2019-01-05T18:01:00.201Z,6.80
2019-01-05T18:04:12.056Z,6.80
2019-01-05T18:06:56.085Z,6.80
2019-01-05T18:16:19.444Z,6.90
2019-01-05T18:19:20.309Z,6.90
2019-01-05T18:22:13.159Z,6.80
2019-01-05T18:41:39.165Z,6.70
2019-01-05T18:44:29.146Z,6.70
2019-01-05T18:47:12.693Z,6.80
2019-01-05T18:50:16.432Z,6.80
2019-01-05T18:53:24.722Z,6.90
2019-01-05T18:56:35.100Z,6.90
2019-01-05T19:03:38.436Z,7.00
2019-01-05T19:06:18.680Z,6.90
2019-01-05T19:09:22.521Z,7.00
2019-01-05T19:12:28.568Z,7.00
2019-01-05T19:15:28.483Z,7.00
2019-01-05T19:21:32.205Z,6.90
2019-01-05T19:34:48.362Z,6.90
2019-01-05T19:37:49.441Z,6.80
2019-01-05T19:43:52.770Z,6.80
2019-01-05T19:50:04.685Z,6.70
2019-01-05T19:53:05.826Z,6.70
2019-01-05T19:55:47.034Z,6.70
2019-01-05T19:58:36.340Z,6.70
2019-01-05T20:05:27.423Z,6.60
2019-01-05T20:08:32.967Z,6.60
2019-01-05T20:15:00.719Z,6.70
2019-01-05T20:18:13.279Z,6.70
2019-01-05T20:21:22.654Z,6.60
2019-01-05T20:24:16.093Z,6.80
2019-01-05T20:27:21.471Z,6.70
2019-01-05T20:30:15.858Z,6.70
2019-01-05T20:33:10.125Z,6.60
2019-01-05T20:36:06.935Z,6.60
2019-01-05T20:38:54.700Z,6.60
2019-01-05T20:42:04.392Z,6.60
2019-01-05T20:45:24.269Z,6.60
2019-01-05T20:48:25.331Z,6.60
2019-01-05T20:51:37.302Z,6.60
2019-01-05T20:54:25.473Z,6.70
2019-01-05T20:57:42.634Z,6.60
2019-01-05T21:00:46.296Z,6.70
2019-01-05T21:03:43.430Z,6.70
2019-01-05T21:06:36.659Z,6.80
2019-01-05T21:09:29.596Z,6.90
2019-01-05T21:12:23.773Z,6.90
2019-01-05T21:15:32.302Z,6.90
2019-01-05T21:18:29.080Z,6.90
2019-01-05T21:21:22.515Z,6.90
2019-01-05T21:24:40.373Z,6.90
2019-01-05T21:27:44.727Z,6.90
2019-01-05T21:30:50.290Z,6.80
2019-01-05T21:34:05.187Z,6.80
2019-01-05T21:36:58.706Z,6.70
2019-01-05T21:40:21.076Z,6.80
2019-01-05T21:43:19.463Z,6.80
2019-01-05T21:46:33.339Z,6.90
2019-01-05T21:49:24.535Z,6.80
2019-01-05T21:52:31.378Z,6.80
2019-01-05T21:55:36.188Z,6.90
2019-01-05T21:58:36.579Z,6.80
2019-01-05T22:01:28.830Z,6.90
2019-01-05T22:04:22.604Z,6.80
2019-01-05T22:07:11.767Z,6.80
2019-01-05T22:10:01.128Z,6.80
2019-01-05T22:13:07.095Z,6.80
2019-01-05T22:16:02.668Z,6.80
2019-01-05T22:18:51.873Z,6.90
2019-01-05T22:22:05.105Z,6.90
2019-01-05T22:24:36.673Z,7.00
2019-01-05T22:27:37.715Z,6.90
2019-01-05T22:30:38.373Z,6.90
2019-01-05T22:33:42.421Z,7.00
2019-01-05T22:36:45.718Z,7.00
2019-01-05T22:39:54.347Z,7.10
2019-01-05T22:43:00.583Z,7.10
2019-01-05T22:46:13.996Z,7.00
2019-01-05T22:49:26.644Z,6.90
2019-01-05T22:52:40.236Z,7.00
2019-01-05T22:55:39.182Z,7.10
2019-01-05T22:58:45.074Z,7.00
2019-01-05T23:01:45.554Z,7.00
2019-01-05T23:04:57.639Z,7.00
2019-01-05T23:08:06.982Z,7.00
2019-01-05T23:11:10.547Z,7.10
2019-01-05T23:14:12.605Z,6.90
2019-01-05T23:17:30.554Z,6.80
2019-01-05T23:20:26.776Z,6.80
2019-01-05T23:23:20.664Z,6.80
2019-01-05T23:26:21.079Z,6.80
2019-01-05T23:29:22.101Z,6.80
2019-01-05T23:32:16.345Z,6.80
2019-01-05T23:38:50.439Z,6.70
2019-01-05T23:42:02.343Z,6.70
2019-01-05T23:45:13.367Z,6.80
2019-01-05T23:48:01.725Z,6.70
2019-01-05T23:54:33.283Z,6.80
2019-01-05T23:57:40.791Z,6.80
